Time;durP1;ratioP1;P1;durP2;ratioP2;P2;SDS_P1;SDS_P2;PMS_P1;PMS_P2;Temp;Humidity;BMP_temperature;BMP_pressure;BME280_temperature;BME280_humidity;BME280_pressure;Samples;Min_cycle;Max_cycle;Signal;HPM_P1;HPM_P2
2022/10/23 00:04:21;;;;;;;21.23;12.93;;;;;;;17.50;100.00;99334.55;4018078;86;28434;-89
2022/10/23 00:10:24;;;;;;;19.42;12.58;;;;;;;17.38;100.00;99335.35;4148503;84;28579;-91
2022/10/23 00:16:26;;;;;;;20.65;13.53;;;;;;;17.45;100.00;99340.52;3972990;88;28522;-91
2022/10/23 00:22:28;;;;;;;20.40;13.25;;;;;;;17.58;100.00;99345.42;3973741;87;28495;-91
2022/10/23 00:28:30;;;;;;;21.62;13.58;;;;;;;17.59;100.00;99347.05;4174974;84;28471;-95
2022/10/23 00:34:31;;;;;;;23.00;13.32;;;;;;;17.47;100.00;99359.56;4162696;84;28468;-92
2022/10/23 00:40:35;;;;;;;22.10;13.43;;;;;;;17.55;100.00;99360.39;4156354;84;28449;-93
2022/10/23 00:46:38;;;;;;;19.75;12.68;;;;;;;17.70;100.00;99366.92;4183303;83;28497;-91
2022/10/23 00:52:45;;;;;;;21.20;12.28;;;;;;;17.78;100.00;99364.20;4138088;84;28487;-90
2022/10/23 00:58:47;;;;;;;20.30;12.28;;;;;;;17.73;100.00;99374.53;4100547;84;28480;-89
2022/10/23 01:04:48;;;;;;;18.90;12.13;;;;;;;17.73;100.00;99375.09;4153443;84;28493;-89
2022/10/23 01:10:55;;;;;;;19.80;12.00;;;;;;;17.55;100.00;99370.44;4139525;84;28500;-89
2022/10/23 01:17:26;;;;;;;19.75;11.57;;;;;;;17.40;100.00;99375.30;4139485;85;28472;-89
2022/10/23 01:24:07;;;;;;;19.77;11.60;;;;;;;17.39;100.00;99365.52;4158201;83;28506;-89
2022/10/23 01:30:14;;;;;;;19.05;11.38;;;;;;;17.48;100.00;99384.83;4055364;86;28463;-91
2022/10/23 01:36:22;;;;;;;19.87;11.93;;;;;;;17.27;100.00;99388.31;4030765;87;28516;-92
2022/10/23 01:42:30;;;;;;;17.90;11.75;;;;;;;17.38;100.00;99385.63;4030088;87;28504;-90
2022/10/23 01:48:33;;;;;;;;;;;;;;;17.35;100.00;99384.81;4071728;86;28542;-91
2022/10/23 01:54:39;;;;;;;17.05;10.45;;;;;;;17.22;100.00;99384.21;4039785;87;20481;-92
2022/10/23 02:00:43;;;;;;;18.00;11.30;;;;;;;17.19;100.00;99385.31;4033851;86;28529;-90
2022/10/23 02:06:45;;;;;;;17.67;10.88;;;;;;;17.19;100.00;99388.83;4017987;86;28506;-92
2022/10/23 02:13:08;;;;;;;16.10;10.25;;;;;;;17.33;100.00;99397.30;4039000;85;28468;-91
2022/10/23 02:19:29;;;;;;;16.65;10.82;;;;;;;17.12;100.00;99409.98;4055531;85;28479;-92
2022/10/23 02:25:59;;;;;;;18.90;11.40;;;;;;;17.10;100.00;99412.16;4101418;85;28485;-89
2022/10/23 02:32:01;;;;;;;17.45;11.25;;;;;;;17.44;100.00;99406.28;4054334;84;28502;-87
2022/10/23 02:38:02;;;;;;;19.07;10.90;;;;;;;17.21;100.00;99407.59;4070169;86;28478;-88
2022/10/23 02:44:51;;;;;;;19.67;11.93;;;;;;;16.99;100.00;99411.28;3994540;86;28449;-86
2022/10/23 02:59:37;;;;;;;;;;;;;;;;;;;;;
2022/10/23 03:05:39;;;;;;;17.77;11.73;;;;;;;17.20;100.00;99418.98;3990151;86;28492;-90
2022/10/23 03:11:41;;;;;;;19.52;11.85;;;;;;;17.09;100.00;99433.09;4079013;84;28514;-89
2022/10/23 03:17:43;;;;;;;17.95;11.00;;;;;;;17.24;100.00;99431.50;4173046;84;28470;-90
2022/10/23 03:23:44;;;;;;;19.57;10.25;;;;;;;17.11;100.00;99436.87;4153292;84;28639;-90
2022/10/23 03:29:47;;;;;;;16.67;10.38;;;;;;;17.08;100.00;99438.77;4019560;86;28484;-93
2022/10/23 03:35:49;;;;;;;17.98;11.22;;;;;;;17.20;100.00;99446.16;4057576;85;28495;-89
2022/10/23 03:41:51;;;;;;;18.95;11.18;;;;;;;17.08;100.00;99442.84;4041350;86;28559;-88
2022/10/23 03:47:52;;;;;;;21.02;12.73;;;;;;;16.84;100.00;99443.25;4018288;87;28454;-89
2022/10/23 03:53:54;;;;;;;21.45;13.45;;;;;;;17.11;100.00;99439.06;4001360;88;28506;-90
2022/10/23 03:59:56;;;;;;;19.90;12.47;;;;;;;17.06;100.00;99445.02;3990435;88;28459;-90
2022/10/23 04:06:00;;;;;;;23.45;11.88;;;;;;;17.17;100.00;99452.66;4039114;87;28514;-89
2022/10/23 04:12:01;;;;;;;21.33;12.70;;;;;;;16.20;100.00;99457.98;4001261;88;28454;-90
2022/10/23 04:18:03;;;;;;;18.67;11.03;;;;;;;15.93;100.00;99456.66;3994493;88;28594;-87
2022/10/23 04:24:06;;;;;;;16.60;11.40;;;;;;;15.69;100.00;99457.73;4006292;86;28516;-87
2022/10/23 04:30:09;;;;;;;15.98;10.90;;;;;;;15.51;100.00;99460.25;4030490;86;28533;-86
2022/10/23 04:36:12;;;;;;;15.72;9.83;;;;;;;16.45;100.00;99454.66;4134869;84;28452;-87
2022/10/23 04:42:14;;;;;;;14.75;10.20;;;;;;;16.11;100.00;99454.94;4046562;86;28503;-90
2022/10/23 04:48:16;;;;;;;18.07;10.63;;;;;;;16.27;100.00;99461.30;4000574;87;28444;-87
2022/10/23 04:54:19;;;;;;;16.62;10.95;;;;;;;16.27;100.00;99451.81;4035114;87;28467;-90
2022/10/23 05:00:34;;;;;;;18.35;11.00;;;;;;;16.10;100.00;99446.52;4070169;86;28474;-91
2022/10/23 05:06:36;;;;;;;15.00;9.98;;;;;;;15.89;100.00;99445.47;4031972;86;28490;-90
2022/10/23 05:12:45;;;;;;;15.85;10.10;;;;;;;15.79;100.00;99443.48;4046746;86;28507;-90
2022/10/23 05:18:47;;;;;;;16.25;10.18;;;;;;;15.70;100.00;99439.04;4067103;86;28451;-87
2022/10/23 05:24:49;;;;;;;17.20;10.45;;;;;;;15.76;100.00;99452.11;4081495;86;28484;-86
2022/10/23 05:30:52;;;;;;;17.30;10.78;;;;;;;15.65;100.00;99449.84;4065397;86;28491;-89
2022/10/23 05:36:55;;;;;;;15.75;10.18;;;;;;;15.93;100.00;99450.70;4087016;85;28484;-88
2022/10/23 05:42:57;;;;;;;13.88;9.28;;;;;;;16.32;100.00;99448.32;4052906;86;28506;-84
2022/10/23 05:49:07;;;;;;;14.35;9.50;;;;;;;16.27;100.00;99444.20;4039575;86;28615;-85
2022/10/23 05:55:16;;;;;;;15.97;10.07;;;;;;;16.42;100.00;99453.83;4058845;86;28480;-84
2022/10/23 06:01:21;;;;;;;18.10;10.23;;;;;;;16.55;100.00;99446.31;4068077;86;28529;-83
2022/10/23 06:07:40;;;;;;;18.70;12.07;;;;;;;16.33;100.00;99445.05;4061745;86;28623;-83
2022/10/23 06:13:45;;;;;;;22.30;13.20;;;;;;;16.36;100.00;99444.00;3981801;86;28921;-84
2022/10/23 06:19:48;;;;;;;21.42;13.00;;;;;;;16.73;100.00;99455.92;4010277;86;28593;-82
2022/10/23 06:25:53;;;;;;;21.00;13.08;;;;;;;15.56;100.00;99469.78;4009108;86;28487;-82
2022/10/23 06:31:59;;;;;;;22.70;13.23;;;;;;;15.60;100.00;99469.58;4020606;86;28477;-84
2022/10/23 06:38:00;;;;;;;22.13;12.70;;;;;;;15.77;100.00;99470.56;4060557;86;28477;-82
2022/10/23 06:44:03;;;;;;;20.77;13.13;;;;;;;15.88;100.00;99481.27;4071166;85;28483;-83
2022/10/23 06:50:18;;;;;;;20.50;12.82;;;;;;;16.13;100.00;99486.67;4074083;85;28519;-83
2022/10/23 06:56:21;;;;;;;21.85;13.58;;;;;;;16.32;100.00;99495.80;4080898;86;28495;-84
2022/10/23 07:02:28;;;;;;;20.52;12.80;;;;;;;16.58;100.00;99490.05;4052252;86;28473;-84
2022/10/23 07:08:38;;;;;;;21.60;12.53;;;;;;;16.69;100.00;99498.27;4066722;86;28487;-83
2022/10/23 07:15:13;;;;;;;;;;;;;;;;;;;;;
2022/10/23 07:21:54;;;;;;;21.02;12.65;;;;;;;16.86;100.00;99515.20;3989965;86;28467;-83
2022/10/23 07:28:09;;;;;;;20.00;12.68;;;;;;;17.17;100.00;99511.90;3965919;86;28552;-82
2022/10/23 07:34:13;;;;;;;19.25;12.50;;;;;;;17.46;100.00;99520.19;4059228;84;33229;-81
2022/10/23 07:40:17;;;;;;;20.60;12.95;;;;;;;18.14;100.00;99508.98;3977392;88;28592;-80
2022/10/23 07:46:19;;;;;;;18.82;11.55;;;;;;;17.88;100.00;99517.08;4023785;85;28507;-84
2022/10/23 07:52:22;;;;;;;17.87;12.20;;;;;;;17.96;100.00;99524.69;4022700;86;28514;-82
2022/10/23 07:58:43;;;;;;;19.27;12.47;;;;;;;18.90;100.00;99523.70;4043832;86;28494;-84
2022/10/23 08:04:51;;;;;;;18.25;12.15;;;;;;;19.32;97.69;99540.00;4033547;86;28503;-85
2022/10/23 08:10:55;;;;;;;17.98;11.85;;;;;;;19.03;99.57;99534.59;4044826;86;28477;-87
2022/10/23 08:17:03;;;;;;;18.35;12.90;;;;;;;19.53;97.39;99528.45;4073113;84;28449;-85
2022/10/23 08:23:26;;;;;;;17.73;11.60;;;;;;;19.57;95.92;99527.36;4084097;84;28510;-91
2022/10/23 08:29:28;;;;;;;18.10;12.07;;;;;;;19.67;96.46;99515.57;4168537;85;28502;-95
2022/10/23 08:35:39;;;;;;;20.45;12.78;;;;;;;19.54;96.18;99517.81;4189930;84;28450;-88
2022/10/23 08:41:51;;;;;;;21.50;12.23;;;;;;;18.93;100.00;99516.34;4118403;83;28472;-86
2022/10/23 08:47:54;;;;;;;18.07;11.50;;;;;;;18.90;100.00;99518.26;4127980;84;28468;-87
2022/10/23 08:54:14;;;;;;;19.92;11.43;;;;;;;18.75;100.00;99508.73;4104860;84;28528;-87
2022/10/23 09:00:18;;;;;;;17.60;10.30;;;;;;;18.73;100.00;99512.28;4125227;85;28465;-87
2022/10/23 09:06:45;;;;;;;14.05;9.68;;;;;;;18.79;100.00;99513.89;4120598;84;28460;-86
2022/10/23 09:13:02;;;;;;;13.98;8.78;;;;;;;18.76;100.00;99530.25;4129224;84;28884;-85
2022/10/23 09:18:52;;;;;;;12.90;8.33;;;;;;;18.89;100.00;99524.77;4017725;86;28450;-86
2022/10/23 09:24:53;;;;;;;12.65;8.13;;;;;;;19.13;100.00;99516.59;4082273;86;28468;-86
2022/10/23 09:31:11;;;;;;;13.65;8.38;;;;;;;19.36;100.00;99520.05;4056001;86;28472;-86
2022/10/23 09:37:25;;;;;;;10.32;7.00;;;;;;;19.81;98.21;99530.25;4057946;86;28498;-86
2022/10/23 09:43:29;;;;;;;10.30;6.95;;;;;;;20.16;94.75;99528.42;4050156;86;28452;-86
2022/10/23 09:49:34;;;;;;;9.78;6.90;;;;;;;20.30;89.34;99513.59;4042934;86;28537;-86
2022/10/23 09:55:35;;;;;;;9.98;7.17;;;;;;;20.34;89.14;99501.56;4076073;86;28440;-85
2022/10/23 10:01:54;;;;;;;13.85;8.63;;;;;;;20.45;87.96;99499.00;4036876;86;28605;-80
2022/10/23 10:08:35;;;;;;;12.70;7.60;;;;;;;20.42;88.59;99485.93;4034216;86;28569;-80
2022/10/23 10:15:04;;;;;;;8.90;5.75;;;;;;;20.16;89.12;99493.51;4036550;86;28549;-80
2022/10/23 10:21:20;;;;;;;8.60;5.15;;;;;;;20.14;86.89;99493.78;4035113;86;28519;-80
2022/10/23 10:27:56;;;;;;;7.90;5.33;;;;;;;20.24;86.90;99486.62;4045669;86;28503;-80
2022/10/23 10:34:54;;;;;;;7.45;4.40;;;;;;;20.28;86.39;99483.57;4034177;86;28471;-80
2022/10/23 10:41:13;;;;;;;5.58;3.62;;;;;;;20.13;84.13;99485.33;4012566;87;28553;-80
2022/10/23 10:47:26;;;;;;;6.00;4.00;;;;;;;19.92;82.43;99471.80;4020367;86;28514;-80
2022/10/23 10:54:11;;;;;;;7.58;3.95;;;;;;;20.26;83.41;99462.03;4047105;86;28505;-81
2022/10/23 11:00:21;;;;;;;5.10;3.40;;;;;;;20.12;79.11;99460.50;4048736;86;28533;-81
2022/10/23 11:06:28;;;;;;;3.83;3.17;;;;;;;20.14;78.83;99452.84;4047502;86;28469;-81
2022/10/23 11:12:31;;;;;;;6.12;3.60;;;;;;;20.24;79.57;99450.56;4069492;86;28502;-81
2022/10/23 11:18:35;;;;;;;4.75;3.60;;;;;;;20.22;78.57;99433.66;4029020;86;28469;-81
2022/10/23 11:25:00;;;;;;;8.30;5.15;;;;;;;20.34;77.95;99417.71;4005765;86;28522;-80
2022/10/23 11:31:44;;;;;;;8.33;5.45;;;;;;;20.44;80.31;99420.91;4093627;84;28529;-81
2022/10/23 11:38:14;;;;;;;7.00;5.10;;;;;;;19.99;81.26;99412.83;4088927;84;28527;-80
2022/10/23 11:44:39;;;;;;;9.25;6.10;;;;;;;19.97;82.34;99406.85;4149205;83;28525;-80
2022/10/23 11:50:49;;;;;;;10.25;6.72;;;;;;;20.22;82.74;99415.13;4139040;83;28549;-84
2022/10/23 11:57:11;;;;;;;11.20;6.78;;;;;;;20.64;81.04;99403.23;4111481;84;28517;-83
2022/10/23 12:03:23;;;;;;;8.48;6.08;;;;;;;20.47;80.07;99390.86;4161238;84;28574;-83
2022/10/23 12:09:42;;;;;;;11.03;6.20;;;;;;;20.72;79.41;99383.48;4159172;84;28591;-82
2022/10/23 12:15:47;;;;;;;8.58;6.03;;;;;;;20.63;79.42;99386.05;4137822;83;28470;-81
2022/10/23 12:43:29;;;;;;;7.95;5.72;;;;;;;20.81;78.13;99333.93;4120528;83;28582;-81
2022/10/23 12:57:46;;;;;;;8.60;5.67;;;;;;;20.05;80.27;99327.10;4024467;85;28459;-82
2022/10/23 13:04:34;;;;;;;7.33;5.78;;;;;;;20.28;80.17;99317.87;4080230;84;28566;-78
2022/10/23 13:10:36;;;;;;;9.05;5.75;;;;;;;19.97;80.98;99329.62;4090402;84;28510;-78
2022/10/23 13:16:39;;;;;;;8.33;5.25;;;;;;;20.43;79.73;99331.08;4106570;84;28498;-76
2022/10/23 13:22:45;;;;;;;10.35;6.15;;;;;;;20.27;79.49;99321.70;4104676;83;28577;-77
2022/10/23 13:28:46;;;;;;;8.95;5.92;;;;;;;20.18;79.79;99313.88;4164601;84;28531;-77
2022/10/23 13:34:55;;;;;;;8.18;5.85;;;;;;;20.13;79.83;99310.64;4085464;85;28499;-77
2022/10/23 13:41:00;;;;;;;8.35;5.95;;;;;;;20.06;80.42;99298.70;4096078;84;28520;-78
2022/10/23 13:47:02;;;;;;;9.55;6.25;;;;;;;20.32;79.67;99299.80;4026211;86;28538;-86
2022/10/23 13:53:04;;;;;;;9.65;6.22;;;;;;;20.10;80.76;99307.67;4047665;85;28507;-84
2022/10/23 13:59:06;;;;;;;9.13;5.72;;;;;;;19.99;81.73;99318.69;4143691;83;28545;-83
2022/10/23 14:05:10;;;;;;;7.65;5.42;;;;;;;20.11;81.62;99320.22;4166995;84;28493;-85
2022/10/23 14:11:14;;;;;;;10.32;5.97;;;;;;;20.00;80.89;99318.16;4153048;83;28511;-84
2022/10/23 14:17:16;;;;;;;10.88;6.53;;;;;;;20.08;80.33;99311.25;4108081;84;28544;-78
2022/10/23 14:23:17;;;;;;;10.78;6.17;;;;;;;20.10;80.49;99297.58;4178418;83;28530;-79
2022/10/23 14:29:19;;;;;;;8.80;6.50;;;;;;;20.16;80.29;99303.80;4054226;84;28522;-78
2022/10/23 14:35:21;;;;;;;8.40;6.12;;;;;;;20.05;81.08;99306.63;4028127;86;28509;-84
2022/10/23 14:41:23;;;;;;;8.63;6.15;;;;;;;19.33;85.30;99308.55;4042994;86;28488;-83
2022/10/23 14:47:26;;;;;;;8.43;6.00;;;;;;;19.65;84.65;99297.68;3949757;88;28482;-88
2022/10/23 14:53:31;;;;;;;7.87;6.08;;;;;;;19.08;86.54;99294.80;3979195;88;28515;-87
2022/10/23 14:59:33;;;;;;;9.15;5.85;;;;;;;18.86;90.53;99309.33;4057118;86;28471;-87
2022/10/23 15:13:09;;;;;;;9.63;5.53;;;;;;;19.01;93.04;99293.48;4057848;86;28504;-87
2022/10/23 15:19:16;;;;;;;8.88;5.45;;;;;;;18.82;96.87;99296.81;4056647;86;28463;-88
2022/10/23 15:25:21;;;;;;;8.70;5.47;;;;;;;18.69;98.48;99302.31;4023206;86;28483;-88
2022/10/23 15:53:37;;;;;;;;;;;;;;;;;;;;;
2022/10/23 15:59:29;;;;;;;7.28;5.58;;;;;;;17.45;100.00;99296.51;4197862;84;28466;-87
2022/10/23 16:05:33;;;;;;;9.80;5.97;;;;;;;17.36;100.00;99292.69;4172760;83;28489;-83
2022/10/23 16:11:46;;;;;;;8.68;5.80;;;;;;;17.30;100.00;99295.11;4222478;84;28470;-85
2022/10/23 16:17:55;;;;;;;10.80;6.30;;;;;;;16.82;100.00;99301.50;4175401;83;28525;-82
2022/10/23 16:24:06;;;;;;;10.23;6.15;;;;;;;16.80;100.00;99297.69;4186345;83;28473;-83
2022/10/23 16:30:12;;;;;;;9.45;5.90;;;;;;;16.70;100.00;99304.44;4250347;83;28539;-83
2022/10/23 16:36:13;;;;;;;8.25;5.85;;;;;;;16.64;100.00;99319.05;4166388;84;28533;-83
2022/10/23 16:42:28;;;;;;;10.45;6.72;;;;;;;16.55;100.00;99325.53;4137642;84;28533;-86
2022/10/23 16:48:37;;;;;;;11.48;6.55;;;;;;;16.30;100.00;99321.61;4136084;83;28515;-79
2022/10/23 16:54:38;;;;;;;10.70;6.65;;;;;;;16.19;100.00;99337.52;4187390;83;28558;-80
2022/10/23 17:00:40;;;;;;;14.80;7.78;;;;;;;15.86;100.00;99348.39;4142978;84;28514;-78
2022/10/23 17:06:43;;;;;;;9.58;7.00;;;;;;;15.72;100.00;99346.11;4151895;84;28508;-76
2022/10/23 17:12:45;;;;;;;14.28;8.15;;;;;;;15.54;100.00;99355.97;4167739;84;28484;-81
2022/10/23 17:18:47;;;;;;;11.93;7.65;;;;;;;15.41;100.00;99361.25;4152222;84;28472;-79
2022/10/23 17:24:49;;;;;;;17.23;11.85;;;;;;;15.27;100.00;99367.08;4130537;85;28451;-78
2022/10/23 17:30:55;;;;;;;17.02;10.48;;;;;;;15.16;100.00;99359.91;4153822;83;28617;-79
2022/10/23 17:36:58;;;;;;;16.25;8.50;;;;;;;15.11;100.00;99363.90;4142871;84;28463;-79
2022/10/23 17:43:15;;;;;;;13.68;7.92;;;;;;;15.23;100.00;99352.39;4161347;84;28496;-80
2022/10/23 17:49:19;;;;;;;12.33;8.88;;;;;;;15.07;100.00;99359.52;4180715;82;28581;-89
2022/10/23 17:55:21;;;;;;;13.48;9.30;;;;;;;15.06;100.00;99355.18;4162138;83;28529;-87
2022/10/23 18:09:27;;;;;;;16.10;10.48;;;;;;;14.84;100.00;99347.05;4056000;82;28489;-88
2022/10/23 18:29:44;;;;;;;15.23;10.50;;;;;;;15.18;100.00;99323.36;4195059;83;28461;-91
2022/10/23 18:36:23;;;;;;;11.22;7.75;;;;;;;14.75;100.00;99326.39;3814256;89;28578;-88
2022/10/23 18:55:15;;;;;;;18.77;10.30;;;;;;;14.77;100.00;99315.60;3939947;88;28478;-95
2022/10/23 19:08:35;;;;;;;18.87;12.13;;;;;;;14.28;100.00;99324.92;3936723;89;28511;-93
2022/10/23 19:14:45;;;;;;;;;;;;;;;14.27;100.00;99309.77;4057829;85;28495;-91
2022/10/23 19:41:29;;;;;;;20.85;11.93;;;;;;;14.22;100.00;99303.23;4004644;87;28471;-88
2022/10/23 19:47:48;;;;;;;28.00;18.25;;;;;;;13.85;100.00;99297.00;4012709;86;28495;-87
2022/10/23 19:54:02;;;;;;;28.23;17.12;;;;;;;13.89;100.00;99296.77;4051041;86;28480;-91
2022/10/23 20:00:07;;;;;;;25.23;14.78;;;;;;;13.74;100.00;99274.93;3996037;88;28496;-92
2022/10/23 20:06:21;;;;;;;17.80;11.85;;;;;;;13.57;100.00;99286.55;4206258;84;28479;-93
2022/10/23 20:12:24;;;;;;;25.85;16.70;;;;;;;13.66;100.00;99281.02;4198496;83;28512;-92
2022/10/23 20:18:40;;;;;;;28.62;16.60;;;;;;;13.49;100.00;99286.42;4217519;84;44155;-92
2022/10/23 20:24:50;;;;;;;22.05;13.28;;;;;;;13.57;100.00;99294.64;4139201;82;28462;-90
2022/10/23 20:30:52;;;;;;;30.97;18.77;;;;;;;13.44;100.00;99283.66;4276623;81;28504;-91
2022/10/23 20:36:57;;;;;;;23.62;14.35;;;;;;;13.41;100.00;99273.83;4330908;81;28475;-93
2022/10/23 20:42:58;;;;;;;18.48;12.37;;;;;;;13.58;100.00;99277.37;4315191;81;28492;-90
2022/10/23 20:49:00;;;;;;;20.12;13.50;;;;;;;13.47;100.00;99277.75;4258360;82;28476;-93
2022/10/23 20:55:08;;;;;;;18.02;11.73;;;;;;;13.30;100.00;99270.13;4253263;82;28480;-93
2022/10/23 21:01:48;;;;;;;;;;;;;;;;;;;;;
2022/10/23 21:07:49;;;;;;;21.97;14.10;;;;;;;13.19;100.00;99261.84;4260995;82;28510;-90
2022/10/23 21:13:59;;;;;;;21.07;13.73;;;;;;;13.24;100.00;99255.20;4251860;82;34691;-90
2022/10/23 21:20:04;;;;;;;19.20;12.75;;;;;;;13.00;100.00;99263.94;4254792;82;28475;-91
2022/10/23 21:26:21;;;;;;;18.75;12.15;;;;;;;13.00;100.00;99262.59;4231055;82;28508;-91
2022/10/23 21:32:32;;;;;;;19.50;11.85;;;;;;;12.82;100.00;99248.22;4193521;83;28627;-91
2022/10/23 21:38:38;;;;;;;18.55;11.68;;;;;;;12.61;100.00;99238.93;4144938;83;28446;-92
2022/10/23 21:44:40;;;;;;;18.42;11.57;;;;;;;12.51;100.00;99239.53;4209530;83;28593;-94
2022/10/23 21:50:43;;;;;;;19.35;11.57;;;;;;;12.47;100.00;99234.34;4204043;83;28393;-95
2022/10/23 21:56:52;;;;;;;20.40;11.78;;;;;;;12.53;100.00;99224.47;4254280;83;28490;-92
2022/10/23 22:03:01;;;;;;;20.08;12.33;;;;;;;12.42;100.00;99232.87;4225338;84;28498;-92
2022/10/23 22:09:04;;;;;;;19.62;12.50;;;;;;;12.39;100.00;99236.05;4203671;82;28472;-92
2022/10/23 22:15:10;;;;;;;19.05;11.73;;;;;;;12.31;100.00;99234.55;4395449;80;28529;-90
2022/10/23 22:21:23;;;;;;;19.07;11.63;;;;;;;12.31;100.00;99229.16;4337899;81;28521;-90
2022/10/23 22:27:25;;;;;;;18.92;11.53;;;;;;;12.32;100.00;99238.88;4308472;81;28504;-90
2022/10/23 22:33:30;;;;;;;19.35;10.72;;;;;;;12.39;100.00;99226.09;4334698;81;28558;-91
2022/10/23 22:39:31;;;;;;;17.77;10.45;;;;;;;12.29;100.00;99217.80;4335533;81;28491;-93
2022/10/23 22:45:32;;;;;;;17.55;11.48;;;;;;;12.27;100.00;99205.90;4370596;79;28520;-92
2022/10/23 22:51:34;;;;;;;17.98;10.93;;;;;;;11.99;100.00;99202.04;4329397;79;28485;-92
2022/10/23 22:57:35;;;;;;;17.40;10.93;;;;;;;11.91;100.00;99195.66;4371214;80;28548;-93
2022/10/23 23:03:37;;;;;;;18.07;10.53;;;;;;;12.61;100.00;99180.94;4429423;79;28453;-90
2022/10/23 23:09:41;;;;;;;18.73;12.20;;;;;;;12.09;100.00;99171.84;4439234;79;28499;-91
2022/10/23 23:15:43;;;;;;;20.62;12.43;;;;;;;11.94;100.00;99169.61;4394495;80;28513;-91
2022/10/23 23:21:44;;;;;;;22.22;13.58;;;;;;;12.43;100.00;99177.08;4375958;80;28567;-93
2022/10/23 23:27:46;;;;;;;24.82;14.43;;;;;;;12.43;100.00;99184.62;4385128;79;28442;-93
2022/10/23 23:33:48;;;;;;;21.70;12.55;;;;;;;12.74;100.00;99187.09;4404955;79;28469;-94
2022/10/23 23:39:49;;;;;;;17.25;11.53;;;;;;;12.79;100.00;99170.98;4378583;80;28575;-95
2022/10/23 23:45:50;;;;;;;21.30;13.30;;;;;;;12.44;100.00;99161.19;4361466;80;28482;-94
2022/10/23 23:51:52;;;;;;;21.40;12.25;;;;;;;12.57;100.00;99177.06;4410899;80;28454;-92
2022/10/23 23:57:53;;;;;;;21.60;12.55;;;;;;;12.36;100.00;99171.83;4348331;80;28520;-96
